Time;durP1;ratioP1;P1;durP2;ratioP2;P2;SDS_P1;SDS_P2;PMS_P1;PMS_P2;Temp;Humidity;BMP_temperature;BMP_pressure;BME280_temperature;BME280_humidity;BME280_pressure;Samples;Min_cycle;Max_cycle;Signal;HPM_P1;HPM_P2
2021/06/18 00:00:40;;;;;;;8.53;4.70;;;16.90;99.90;;;;;;5058979;28;20609;-73
2021/06/18 00:03:06;;;;;;;6.03;4.20;;;16.80;99.90;;;;;;5061052;28;20263;-72
2021/06/18 00:05:32;;;;;;;7.67;4.40;;;16.70;99.90;;;;;;5059020;28;20215;-71
2021/06/18 00:07:59;;;;;;;4.93;4.40;;;16.70;99.90;;;;;;5057355;28;20810;-71
2021/06/18 00:10:26;;;;;;;6.23;4.90;;;16.60;99.90;;;;;;5068456;28;20237;-71
2021/06/18 00:12:53;;;;;;;10.17;4.67;;;16.60;99.90;;;;;;5042825;28;20175;-74
2021/06/18 00:15:20;;;;;;;7.30;4.40;;;16.70;99.90;;;;;;5059430;28;20182;-73
2021/06/18 00:17:46;;;;;;;5.93;4.97;;;16.90;99.90;;;;;;5057648;28;20202;-73
2021/06/18 00:20:14;;;;;;;5.10;4.60;;;17.10;99.90;;;;;;5063852;28;20190;-75
2021/06/18 00:22:42;;;;;;;7.67;5.47;;;17.00;99.90;;;;;;5063098;28;20278;-72
2021/06/18 00:25:09;;;;;;;4.53;4.10;;;16.90;99.90;;;;;;5064256;28;20574;-73
2021/06/18 00:27:36;;;;;;;4.67;4.27;;;17.00;99.90;;;;;;5066043;28;20225;-73
2021/06/18 00:30:05;;;;;;;5.37;4.33;;;16.90;99.90;;;;;;5063778;28;20811;-73
2021/06/18 00:32:31;;;;;;;4.83;4.07;;;16.80;99.90;;;;;;5059317;28;20278;-72
2021/06/18 00:34:58;;;;;;;4.70;3.87;;;16.90;99.90;;;;;;5085656;28;20274;-72
2021/06/18 00:37:24;;;;;;;4.90;3.97;;;16.80;99.90;;;;;;5057377;28;20222;-72
2021/06/18 00:39:51;;;;;;;4.63;3.97;;;16.70;99.90;;;;;;5053085;28;20302;-72
2021/06/18 00:42:17;;;;;;;3.93;3.47;;;16.70;99.90;;;;;;5048176;28;20187;-71
2021/06/18 00:44:44;;;;;;;5.60;3.67;;;16.50;99.90;;;;;;5060737;28;20256;-71
2021/06/18 00:47:22;;;;;;;6.30;3.20;;;16.30;99.90;;;;;;5064123;28;20599;-71
2021/06/18 00:49:49;;;;;;;4.03;3.63;;;16.10;99.90;;;;;;5059773;28;20270;-71
2021/06/18 00:52:17;;;;;;;3.70;3.30;;;16.00;99.90;;;;;;5057500;28;20702;-72
2021/06/18 00:54:45;;;;;;;4.53;3.37;;;15.90;99.90;;;;;;5062150;28;20194;-71
2021/06/18 00:57:11;;;;;;;3.83;3.30;;;15.80;99.90;;;;;;5060474;28;20198;-71
2021/06/18 00:59:38;;;;;;;4.03;3.17;;;15.80;99.90;;;;;;5062115;28;20248;-72
2021/06/18 01:02:05;;;;;;;3.93;3.40;;;15.70;99.90;;;;;;5060595;28;20203;-71
2021/06/18 01:04:33;;;;;;;3.40;3.10;;;15.60;99.90;;;;;;5065903;28;20242;-70
2021/06/18 01:07:28;;;;;;;4.07;3.67;;;15.50;99.90;;;;;;5043510;28;20233;-72
2021/06/18 01:10:13;;;;;;;3.57;3.27;;;15.60;99.90;;;;;;5065401;28;20186;-70
2021/06/18 01:13:05;;;;;;;5.13;3.10;;;15.60;99.90;;;;;;5058646;28;21244;-71
2021/06/18 01:15:54;;;;;;;3.57;3.10;;;15.70;99.90;;;;;;5061068;28;20281;-72
2021/06/18 01:18:29;;;;;;;5.30;2.80;;;15.70;99.90;;;;;;5055525;28;20280;-72
2021/06/18 01:21:25;;;;;;;3.63;3.07;;;15.60;99.90;;;;;;5083145;28;20191;-73
2021/06/18 01:24:20;;;;;;;3.43;3.00;;;15.60;99.90;;;;;;5059663;28;20191;-73
2021/06/18 01:27:03;;;;;;;4.50;2.77;;;15.50;99.90;;;;;;5064417;28;20667;-73
2021/06/18 01:29:38;;;;;;;4.97;2.83;;;15.60;99.90;;;;;;5058531;28;20183;-73
2021/06/18 01:32:12;;;;;;;2.90;2.70;;;15.50;99.90;;;;;;5056567;28;20187;-71
2021/06/18 01:34:40;;;;;;;4.30;2.90;;;15.50;99.90;;;;;;5063530;28;20640;-72
2021/06/18 01:37:14;;;;;;;2.70;2.50;;;15.50;99.90;;;;;;5055699;28;20206;-72
2021/06/18 01:39:43;;;;;;;2.83;2.50;;;15.50;99.90;;;;;;5084610;28;20180;-70
2021/06/18 01:42:11;;;;;;;5.27;3.00;;;15.40;99.90;;;;;;5055683;28;20190;-70
2021/06/18 01:44:39;;;;;;;4.50;3.10;;;15.50;99.90;;;;;;5060125;28;20187;-70
2021/06/18 01:47:09;;;;;;;3.50;3.20;;;15.50;99.90;;;;;;5060283;28;20683;-70
2021/06/18 01:49:41;;;;;;;6.50;3.20;;;15.50;99.90;;;;;;5062541;28;20187;-71
2021/06/18 01:52:13;;;;;;;10.23;3.30;;;15.60;99.90;;;;;;5058410;28;20190;-70
2021/06/18 01:54:43;;;;;;;3.67;2.63;;;15.60;99.90;;;;;;5062995;28;20199;-71
2021/06/18 01:57:13;;;;;;;4.50;2.90;;;15.60;99.90;;;;;;5062439;28;20513;-71
2021/06/18 01:59:43;;;;;;;3.40;2.57;;;15.60;99.90;;;;;;5062155;28;20213;-72
2021/06/18 02:02:09;;;;;;;3.60;2.60;;;15.60;99.90;;;;;;5044167;28;20769;-71
2021/06/18 02:04:40;;;;;;;4.80;3.47;;;15.60;99.90;;;;;;5059437;28;20700;-71
2021/06/18 02:07:08;;;;;;;3.13;2.60;;;15.50;99.90;;;;;;5063174;28;20607;-70
2021/06/18 02:09:39;;;;;;;2.73;2.50;;;15.50;99.90;;;;;;5085261;28;20579;-70
2021/06/18 02:12:06;;;;;;;3.53;2.70;;;15.40;99.90;;;;;;5057712;28;20240;-71
2021/06/18 02:14:35;;;;;;;2.80;2.60;;;15.40;99.90;;;;;;5065358;28;20186;-71
2021/06/18 02:17:05;;;;;;;3.67;2.60;;;15.40;99.90;;;;;;5061084;28;20195;-72
2021/06/18 02:19:35;;;;;;;9.40;3.30;;;15.40;99.90;;;;;;5069679;28;20187;-71
2021/06/18 02:22:06;;;;;;;3.33;2.33;;;15.40;99.90;;;;;;5056474;28;20183;-71
2021/06/18 02:24:35;;;;;;;3.43;2.50;;;15.40;99.90;;;;;;5061209;28;20193;-74
2021/06/18 02:27:04;;;;;;;2.77;2.40;;;15.30;99.90;;;;;;5059851;28;20218;-71
2021/06/18 02:29:31;;;;;;;3.40;2.70;;;15.40;99.90;;;;;;5043421;28;20802;-70
2021/06/18 02:32:02;;;;;;;2.80;2.60;;;15.40;99.90;;;;;;5061876;28;20187;-70
2021/06/18 02:34:29;;;;;;;2.57;2.30;;;15.40;99.90;;;;;;5056419;28;20244;-71
2021/06/18 02:36:55;;;;;;;2.80;2.50;;;15.40;99.90;;;;;;5059423;28;20193;-72
2021/06/18 02:39:23;;;;;;;3.83;2.40;;;15.50;99.90;;;;;;5062990;28;20317;-71
2021/06/18 02:41:50;;;;;;;4.03;2.40;;;15.50;99.90;;;;;;5057302;28;20606;-71
2021/06/18 02:44:16;;;;;;;2.50;2.30;;;15.60;99.90;;;;;;5059733;28;20662;-70
2021/06/18 02:46:55;;;;;;;4.37;2.53;;;15.60;99.90;;;;;;5039953;28;21007;-71
2021/06/18 02:49:43;;;;;;;4.00;2.30;;;15.70;99.90;;;;;;5061158;28;20197;-71
2021/06/18 02:52:19;;;;;;;2.80;2.27;;;15.80;99.90;;;;;;5057761;28;20190;-70
2021/06/18 02:54:58;;;;;;;4.60;2.47;;;15.90;99.90;;;;;;5061807;28;20274;-70
2021/06/18 02:57:34;;;;;;;3.00;2.60;;;15.90;99.90;;;;;;5060502;28;20198;-71
2021/06/18 03:00:12;;;;;;;7.43;2.70;;;15.80;99.90;;;;;;5057120;28;20252;-71
2021/06/18 03:02:48;;;;;;;5.43;2.67;;;15.90;99.90;;;;;;5055500;28;20187;-71
2021/06/18 03:05:20;;;;;;;2.87;2.60;;;15.90;99.90;;;;;;5044716;28;20289;-73
2021/06/18 03:08:02;;;;;;;2.50;2.30;;;15.90;99.90;;;;;;5058208;28;20587;-73
2021/06/18 03:10:38;;;;;;;3.97;2.73;;;16.00;99.90;;;;;;5058384;28;20223;-72
2021/06/18 03:13:12;;;;;;;3.57;2.60;;;16.00;99.90;;;;;;5084767;28;20247;-71
2021/06/18 03:15:44;;;;;;;4.90;2.37;;;16.00;99.90;;;;;;5069395;28;20599;-72
2021/06/18 03:18:14;;;;;;;2.63;2.43;;;16.10;99.90;;;;;;5087094;28;20205;-72
2021/06/18 03:20:45;;;;;;;4.93;2.17;;;16.10;99.90;;;;;;5064410;28;20273;-71
2021/06/18 03:23:16;;;;;;;2.80;2.47;;;16.10;99.90;;;;;;5058142;28;20190;-72
2021/06/18 03:25:43;;;;;;;2.30;2.10;;;16.20;99.90;;;;;;5059157;28;20222;-72
2021/06/18 03:28:13;;;;;;;4.20;2.20;;;16.20;99.90;;;;;;5044203;28;20214;-71
2021/06/18 03:30:40;;;;;;;3.47;2.40;;;16.30;99.90;;;;;;5061025;28;20202;-71
2021/06/18 03:33:08;;;;;;;3.17;2.20;;;16.40;99.90;;;;;;5062206;28;20187;-73
2021/06/18 03:35:36;;;;;;;2.43;1.93;;;16.30;99.90;;;;;;5062727;28;20823;-71
2021/06/18 03:38:04;;;;;;;2.10;1.83;;;16.40;99.90;;;;;;5055401;28;20251;-70
2021/06/18 03:40:33;;;;;;;2.03;1.87;;;16.50;99.90;;;;;;5063625;28;20925;-71
2021/06/18 03:42:59;;;;;;;3.73;1.90;;;16.50;99.90;;;;;;5057433;28;20232;-73
2021/06/18 03:45:26;;;;;;;1.83;1.73;;;16.50;99.90;;;;;;5061936;28;20210;-72
2021/06/18 03:47:53;;;;;;;2.97;1.80;;;16.60;99.90;;;;;;5059436;28;20246;-72
2021/06/18 03:50:23;;;;;;;2.27;1.70;;;16.50;99.90;;;;;;5056075;28;20286;-72
2021/06/18 03:52:50;;;;;;;1.90;1.70;;;16.60;99.90;;;;;;5072889;28;20248;-72
2021/06/18 03:55:17;;;;;;;5.43;2.20;;;16.50;99.90;;;;;;5059741;28;20182;-72
2021/06/18 03:57:49;;;;;;;2.37;1.80;;;16.50;99.90;;;;;;5072883;28;20221;-71
2021/06/18 04:00:17;;;;;;;3.83;2.20;;;16.40;99.90;;;;;;5076321;28;20201;-72
2021/06/18 04:02:44;;;;;;;2.00;1.67;;;16.40;99.90;;;;;;5053694;28;20217;-71
2021/06/18 04:05:17;;;;;;;2.30;1.93;;;16.40;99.90;;;;;;5060326;28;20307;-71
2021/06/18 04:07:47;;;;;;;3.87;2.03;;;16.50;99.90;;;;;;5058562;28;20203;-71
2021/06/18 04:10:18;;;;;;;2.47;2.10;;;16.60;99.90;;;;;;5046245;28;20647;-71
2021/06/18 04:12:48;;;;;;;2.47;2.20;;;16.70;99.90;;;;;;5054451;28;20190;-71
2021/06/18 04:15:15;;;;;;;2.10;1.90;;;16.80;99.90;;;;;;5061861;28;20190;-71
2021/06/18 04:17:42;;;;;;;2.43;1.73;;;16.80;99.90;;;;;;5056972;28;20195;-71
2021/06/18 04:20:10;;;;;;;3.70;2.00;;;16.90;99.90;;;;;;5042044;28;20186;-71
2021/06/18 04:22:36;;;;;;;2.63;2.20;;;16.90;99.90;;;;;;5059294;28;20190;-73
2021/06/18 04:25:05;;;;;;;3.27;2.40;;;17.00;99.90;;;;;;5042003;28;20782;-71
2021/06/18 04:27:33;;;;;;;2.30;1.97;;;17.20;99.90;;;;;;5055541;28;20261;-72
2021/06/18 04:30:00;;;;;;;4.83;2.17;;;17.30;99.90;;;;;;5062619;28;20190;-74
2021/06/18 04:32:26;;;;;;;1.97;1.77;;;17.50;99.90;;;;;;5059972;28;20965;-73
2021/06/18 04:34:52;;;;;;;2.53;2.17;;;17.60;99.90;;;;;;5052962;28;20186;-73
2021/06/18 04:37:19;;;;;;;3.23;2.13;;;17.70;99.90;;;;;;5060516;28;20286;-73
2021/06/18 04:39:45;;;;;;;2.70;2.30;;;17.80;99.90;;;;;;5057844;28;20191;-73
2021/06/18 04:42:11;;;;;;;2.10;1.80;;;18.00;99.90;;;;;;5059916;28;20251;-73
2021/06/18 04:44:38;;;;;;;2.30;2.10;;;18.10;99.90;;;;;;5062174;28;20246;-74
2021/06/18 04:47:04;;;;;;;2.60;2.20;;;18.10;99.90;;;;;;5060369;28;20218;-73
2021/06/18 04:49:30;;;;;;;2.13;1.80;;;18.20;99.90;;;;;;5051142;28;20265;-72
2021/06/18 04:51:57;;;;;;;2.73;2.10;;;18.40;99.90;;;;;;5055423;28;20178;-71
2021/06/18 04:54:23;;;;;;;2.20;2.00;;;18.40;99.90;;;;;;5055116;28;20195;-74
2021/06/18 04:56:50;;;;;;;2.40;2.00;;;18.50;99.90;;;;;;5052093;28;20222;-74
2021/06/18 04:59:19;;;;;;;2.27;1.77;;;18.50;99.90;;;;;;5055916;28;20202;-73
2021/06/18 05:01:46;;;;;;;2.53;1.93;;;18.50;99.90;;;;;;5054093;28;20199;-73
2021/06/18 05:04:13;;;;;;;2.93;1.90;;;18.50;99.90;;;;;;5056135;28;20292;-73
2021/06/18 05:06:39;;;;;;;2.87;2.00;;;18.60;99.90;;;;;;5047692;28;20187;-74
2021/06/18 05:09:06;;;;;;;3.90;1.80;;;18.70;99.90;;;;;;5048898;28;20218;-74
2021/06/18 05:11:33;;;;;;;2.20;1.67;;;18.70;99.90;;;;;;5062132;28;20789;-74
2021/06/18 05:13:59;;;;;;;4.10;1.70;;;18.90;99.90;;;;;;5062835;28;20279;-72
2021/06/18 05:16:26;;;;;;;1.53;1.43;;;18.90;99.90;;;;;;5048560;28;20199;-72
2021/06/18 05:18:52;;;;;;;1.90;1.43;;;19.00;99.90;;;;;;5056981;28;20199;-72
2021/06/18 05:21:19;;;;;;;2.13;1.23;;;19.00;99.90;;;;;;5060258;28;20194;-72
2021/06/18 05:23:45;;;;;;;1.40;1.23;;;19.30;99.90;;;;;;5044072;28;20719;-74
2021/06/18 05:26:12;;;;;;;2.70;1.20;;;19.60;99.90;;;;;;5057198;28;20207;-71
2021/06/18 05:28:38;;;;;;;1.30;1.20;;;19.70;99.90;;;;;;5062086;28;20307;-68
2021/06/18 05:31:04;;;;;;;2.70;1.43;;;19.60;99.90;;;;;;5059442;28;20180;-70
2021/06/18 05:33:31;;;;;;;3.10;1.20;;;19.60;99.90;;;;;;5062546;28;20656;-69
2021/06/18 05:35:57;;;;;;;3.60;1.30;;;19.70;99.90;;;;;;5061412;28;20904;-68
2021/06/18 05:38:23;;;;;;;2.23;1.43;;;19.90;99.90;;;;;;5061655;28;20195;-71
2021/06/18 05:40:52;;;;;;;2.13;1.30;;;19.90;99.90;;;;;;5060524;28;20190;-70
2021/06/18 05:43:19;;;;;;;3.27;1.30;;;19.90;99.90;;;;;;5056012;28;20191;-71
2021/06/18 05:45:46;;;;;;;1.93;1.20;;;20.10;99.90;;;;;;5059834;28;20265;-71
2021/06/18 05:48:12;;;;;;;1.57;1.23;;;20.10;99.90;;;;;;5063306;28;20543;-69
2021/06/18 05:50:39;;;;;;;3.93;1.20;;;20.10;99.90;;;;;;5058577;28;20196;-72
2021/06/18 05:53:05;;;;;;;2.23;1.30;;;20.40;99.90;;;;;;5060496;28;20234;-73
2021/06/18 05:55:31;;;;;;;1.40;1.10;;;20.40;99.90;;;;;;5058229;28;20188;-73
2021/06/18 05:57:57;;;;;;;2.00;1.30;;;20.40;99.90;;;;;;5059454;28;20222;-74
2021/06/18 06:00:25;;;;;;;5.60;1.40;;;20.40;99.90;;;;;;5055608;28;20395;-75
2021/06/18 06:02:51;;;;;;;2.10;1.23;;;20.40;99.90;;;;;;5058192;28;20223;-74
2021/06/18 06:05:17;;;;;;;2.60;1.50;;;20.80;99.90;;;;;;5040450;28;20219;-73
2021/06/18 06:07:47;;;;;;;1.83;1.40;;;20.90;99.90;;;;;;5056500;28;20652;-71
2021/06/18 06:10:16;;;;;;;4.23;1.67;;;21.30;99.90;;;;;;5050433;28;20191;-74
2021/06/18 06:12:45;;;;;;;1.47;1.20;;;21.70;99.90;;;;;;5057524;28;20210;-73
2021/06/18 06:15:12;;;;;;;1.87;1.43;;;21.80;99.90;;;;;;5055437;28;20257;-74
2021/06/18 06:17:38;;;;;;;2.37;1.40;;;21.70;99.90;;;;;;5045303;28;20531;-75
2021/06/18 06:20:07;;;;;;;2.40;1.50;;;21.80;99.90;;;;;;5055487;28;20183;-75
2021/06/18 06:22:34;;;;;;;3.63;1.53;;;22.00;99.90;;;;;;5058867;28;20189;-73
2021/06/18 06:25:01;;;;;;;1.50;1.40;;;22.00;99.90;;;;;;5038309;28;20236;-74
2021/06/18 06:27:27;;;;;;;4.60;1.80;;;22.30;99.90;;;;;;5041008;28;20215;-74
2021/06/18 06:29:54;;;;;;;5.03;1.60;;;22.20;99.90;;;;;;5058144;28;20878;-75
2021/06/18 06:32:20;;;;;;;2.87;1.57;;;22.10;99.90;;;;;;5060340;28;20200;-74
2021/06/18 06:34:46;;;;;;;2.47;1.80;;;22.30;99.90;;;;;;5058317;28;20175;-75
2021/06/18 06:37:13;;;;;;;1.83;1.43;;;22.40;99.90;;;;;;5042269;28;20679;-74
2021/06/18 06:39:39;;;;;;;5.20;1.63;;;22.50;99.90;;;;;;5059508;28;20215;-74
2021/06/18 06:42:06;;;;;;;2.37;1.60;;;22.80;99.90;;;;;;5052203;28;20628;-75
2021/06/18 06:44:33;;;;;;;5.33;1.93;;;23.00;99.90;;;;;;5040295;28;20252;-75
2021/06/18 06:47:00;;;;;;;2.53;2.00;;;23.30;99.90;;;;;;5042551;28;20214;-74
2021/06/18 06:49:26;;;;;;;3.00;1.93;;;23.50;99.90;;;;;;5055333;28;20193;-73
2021/06/18 06:51:53;;;;;;;2.10;1.90;;;23.50;99.90;;;;;;5060087;28;20187;-75
2021/06/18 06:54:19;;;;;;;7.10;2.17;;;23.30;99.90;;;;;;5038908;28;20187;-74
2021/06/18 06:56:46;;;;;;;5.93;2.13;;;23.30;99.90;;;;;;5059408;28;20566;-73
2021/06/18 06:59:14;;;;;;;2.97;2.13;;;23.80;99.90;;;;;;5056919;28;20195;-74
2021/06/18 07:01:41;;;;;;;3.35;2.17;;;24.00;99.90;;;;;;5042311;28;20187;-73
2021/06/18 07:04:07;;;;;;;7.95;2.53;;;24.20;99.90;;;;;;5056601;28;20264;-73
2021/06/18 07:06:35;;;;;;;5.60;2.55;;;24.20;99.90;;;;;;5056235;28;20979;-73
2021/06/18 07:09:02;;;;;;;6.38;2.10;;;24.30;99.90;;;;;;5056443;28;20194;-73
2021/06/18 07:11:29;;;;;;;4.20;2.15;;;24.50;99.90;;;;;;5039880;28;20527;-73
2021/06/18 07:13:56;;;;;;;6.10;2.35;;;24.50;99.90;;;;;;5040949;28;20183;-73
2021/06/18 07:16:24;;;;;;;3.53;2.00;;;24.30;99.90;;;;;;5033753;28;20208;-73
2021/06/18 07:18:52;;;;;;;3.80;2.08;;;24.50;99.90;;;;;;5043826;28;20186;-73
2021/06/18 07:21:19;;;;;;;2.40;1.95;;;24.50;99.90;;;;;;5040007;28;20194;-72
2021/06/18 07:23:45;;;;;;;2.25;1.92;;;25.00;99.90;;;;;;5059481;28;20218;-73
2021/06/18 07:26:11;;;;;;;15.65;2.22;;;25.10;99.90;;;;;;5044896;28;20199;-73
2021/06/18 07:28:38;;;;;;;5.38;2.03;;;25.20;99.90;;;;;;5045677;28;20320;-72
2021/06/18 07:31:05;;;;;;;6.43;1.90;;;25.30;99.90;;;;;;5038889;28;20187;-72
2021/06/18 07:33:35;;;;;;;6.85;2.28;;;25.50;99.90;;;;;;5058950;28;20193;-73
2021/06/18 07:36:02;;;;;;;4.38;2.45;;;25.60;99.90;;;;;;5049852;28;20288;-73
2021/06/18 07:38:28;;;;;;;6.45;1.75;;;25.50;99.90;;;;;;5059704;28;20215;-73
2021/06/18 07:40:57;;;;;;;4.60;1.90;;;25.60;99.90;;;;;;5059544;28;20643;-72
2021/06/18 07:43:24;;;;;;;3.42;1.98;;;25.70;99.90;;;;;;5041753;28;20241;-72
2021/06/18 07:45:50;;;;;;;3.33;2.38;;;25.90;99.90;;;;;;5054563;28;20183;-72
2021/06/18 07:48:16;;;;;;;3.95;2.03;;;25.90;99.90;;;;;;5055222;28;21154;-72
2021/06/18 07:50:43;;;;;;;5.30;1.98;;;26.00;99.90;;;;;;5057883;28;20707;-74
2021/06/18 07:53:09;;;;;;;4.80;2.40;;;26.00;99.90;;;;;;5036659;28;20237;-74
2021/06/18 07:55:36;;;;;;;8.02;2.40;;;26.00;99.90;;;;;;5055286;28;20195;-73
2021/06/18 07:58:03;;;;;;;6.07;2.25;;;26.20;99.90;;;;;;5054850;28;20183;-72
2021/06/18 08:00:29;;;;;;;5.75;2.30;;;26.20;99.90;;;;;;5050951;28;20192;-73
2021/06/18 08:02:56;;;;;;;4.63;2.33;;;26.30;99.90;;;;;;5041592;28;20186;-72
2021/06/18 08:05:22;;;;;;;6.63;2.00;;;26.40;99.90;;;;;;5054744;28;20210;-74
2021/06/18 08:07:49;;;;;;;46.85;5.68;;;26.40;99.90;;;;;;5052081;28;20226;-74
2021/06/18 08:10:17;;;;;;;9.48;2.65;;;26.40;99.90;;;;;;5051391;28;20258;-72
2021/06/18 08:12:47;;;;;;;7.40;2.33;;;26.40;99.90;;;;;;5050821;28;20197;-73
2021/06/18 08:15:14;;;;;;;7.95;2.45;;;26.40;99.90;;;;;;5056438;28;20183;-73
2021/06/18 08:17:41;;;;;;;10.30;3.03;;;26.50;99.90;;;;;;5057672;28;20312;-73
2021/06/18 08:20:11;;;;;;;13.40;3.45;;;26.60;99.90;;;;;;5059876;28;20182;-71
2021/06/18 08:22:38;;;;;;;14.38;2.55;;;26.70;99.90;;;;;;5055670;28;20195;-72
2021/06/18 08:25:06;;;;;;;29.75;3.92;;;26.70;99.90;;;;;;5055031;28;20686;-71
2021/06/18 08:27:33;;;;;;;6.80;2.58;;;26.70;99.90;;;;;;5051066;28;20679;-73
2021/06/18 08:30:00;;;;;;;7.20;2.92;;;26.60;99.90;;;;;;5039191;28;20196;-72
2021/06/18 08:32:26;;;;;;;7.50;2.65;;;26.60;99.90;;;;;;5041298;28;20195;-74
2021/06/18 08:34:53;;;;;;;7.35;2.53;;;26.70;99.90;;;;;;5054998;28;20225;-74
2021/06/18 08:37:19;;;;;;;9.80;2.65;;;26.90;99.90;;;;;;5050513;28;20195;-73
2021/06/18 08:39:46;;;;;;;6.55;2.58;;;27.00;99.90;;;;;;5056068;28;20187;-72
2021/06/18 08:42:12;;;;;;;8.70;2.65;;;27.00;99.90;;;;;;5057111;28;20265;-74
2021/06/18 08:44:39;;;;;;;6.68;2.35;;;27.20;99.90;;;;;;5062690;28;20195;-74
2021/06/18 08:47:05;;;;;;;5.53;2.28;;;27.00;99.90;;;;;;5059809;28;20218;-74
2021/06/18 08:49:32;;;;;;;5.03;2.60;;;27.20;99.90;;;;;;5062286;28;20211;-74
2021/06/18 08:51:58;;;;;;;8.02;3.10;;;27.30;99.90;;;;;;5060907;28;20224;-72
2021/06/18 08:54:41;;;;;;;6.82;2.72;;;27.40;99.90;;;;;;5058286;28;20305;-72
2021/06/18 08:57:11;;;;;;;7.18;2.42;;;27.50;99.90;;;;;;5075344;28;20675;-75
2021/06/18 08:59:38;;;;;;;12.55;2.35;;;27.50;99.90;;;;;;5057834;28;20199;-73
2021/06/18 09:02:04;;;;;;;6.85;2.85;;;27.60;99.90;;;;;;5055919;28;20840;-73
2021/06/18 09:04:31;;;;;;;8.30;2.70;;;27.60;99.90;;;;;;5061230;28;20226;-73
2021/06/18 09:06:59;;;;;;;6.95;2.80;;;27.40;99.90;;;;;;5047555;28;20352;-72
2021/06/18 09:09:31;;;;;;;4.40;2.40;;;27.50;99.90;;;;;;5060772;28;20183;-73
2021/06/18 09:12:07;;;;;;;6.68;2.53;;;27.70;99.90;;;;;;5060154;28;20246;-73
2021/06/18 09:14:36;;;;;;;7.22;2.75;;;27.70;99.90;;;;;;5089573;28;20186;-73
2021/06/18 09:17:24;;;;;;;7.25;2.25;;;27.70;99.90;;;;;;5056914;28;20198;-72
2021/06/18 09:19:57;;;;;;;8.32;2.20;;;27.90;99.90;;;;;;5061809;28;20845;-73
2021/06/18 09:22:45;;;;;;;9.20;2.15;;;27.90;99.90;;;;;;5055246;28;20198;-72
2021/06/18 09:25:17;;;;;;;8.48;2.40;;;28.30;99.90;;;;;;5063578;28;20187;-72
2021/06/18 09:27:49;;;;;;;9.63;2.85;;;28.50;99.90;;;;;;5057841;28;20753;-74
2021/06/18 09:30:21;;;;;;;8.00;2.47;;;28.40;99.90;;;;;;5059257;28;20251;-74
2021/06/18 09:33:00;;;;;;;6.65;2.45;;;28.60;99.90;;;;;;5055624;28;20192;-72
2021/06/18 09:35:29;;;;;;;6.20;2.40;;;28.70;99.90;;;;;;5045004;28;20183;-72
2021/06/18 09:37:58;;;;;;;6.50;2.28;;;28.50;99.90;;;;;;5056242;28;20191;-74
2021/06/18 09:40:27;;;;;;;8.95;2.60;;;28.60;99.90;;;;;;5057909;28;20183;-72
2021/06/18 09:43:15;;;;;;;4.90;1.90;;;29.00;99.90;;;;;;5057177;28;20218;-71
2021/06/18 09:45:41;;;;;;;5.80;2.38;;;29.10;99.90;;;;;;5037195;28;20219;-71
2021/06/18 09:48:23;;;;;;;5.60;2.88;;;29.10;99.90;;;;;;5045559;28;20635;-75
2021/06/18 09:51:00;;;;;;;8.70;3.00;;;29.10;99.90;;;;;;5041003;28;20183;-71
2021/06/18 09:53:28;;;;;;;7.28;2.55;;;29.30;99.90;;;;;;5057363;28;20313;-71
2021/06/18 09:56:07;;;;;;;11.80;2.75;;;29.10;99.90;;;;;;5058175;28;20194;-72
2021/06/18 09:58:47;;;;;;;5.72;2.17;;;28.80;99.90;;;;;;5065668;28;20208;-73
2021/06/18 10:01:27;;;;;;;9.30;2.38;;;28.60;99.90;;;;;;5052268;28;20197;-73
2021/06/18 10:04:06;;;;;;;12.10;2.72;;;28.80;99.90;;;;;;5057798;28;20187;-73
2021/06/18 10:06:38;;;;;;;6.30;2.47;;;29.00;99.90;;;;;;5067312;28;20804;-73
2021/06/18 10:09:11;;;;;;;11.00;3.25;;;29.00;99.90;;;;;;5056750;28;20188;-72
2021/06/18 10:11:45;;;;;;;6.95;2.20;;;29.10;99.90;;;;;;5061800;28;20183;-73
2021/06/18 10:14:13;;;;;;;9.65;2.63;;;29.60;99.90;;;;;;5043033;28;20799;-72
2021/06/18 10:16:41;;;;;;;6.65;2.30;;;29.90;99.90;;;;;;5044805;28;20187;-72
2021/06/18 10:19:08;;;;;;;6.22;2.40;;;29.30;99.90;;;;;;5052809;28;20198;-72
2021/06/18 10:22:06;;;;;;;8.35;2.58;;;29.60;99.90;;;;;;5064028;28;20198;-71
2021/06/18 10:24:54;;;;;;;4.32;1.80;;;29.80;99.90;;;;;;5055397;28;20746;-70
2021/06/18 10:27:39;;;;;;;7.78;2.42;;;29.90;99.90;;;;;;5056142;28;20221;-70
2021/06/18 10:30:31;;;;;;;6.40;2.53;;;29.80;99.90;;;;;;5059848;28;20191;-71
2021/06/18 10:33:25;;;;;;;6.57;2.50;;;29.90;99.90;;;;;;5056937;28;20318;-74
2021/06/18 10:35:59;;;;;;;8.70;2.17;;;29.60;99.90;;;;;;5038927;28;20208;-72
2021/06/18 10:38:30;;;;;;;6.28;2.30;;;29.80;99.90;;;;;;5060575;28;20195;-72
2021/06/18 10:41:17;;;;;;;6.72;2.60;;;29.60;99.90;;;;;;5053788;28;20196;-70
2021/06/18 10:43:56;;;;;;;4.50;2.28;;;29.40;99.90;;;;;;5063462;28;20213;-72
2021/06/18 10:46:30;;;;;;;10.30;2.30;;;29.50;99.90;;;;;;5060667;28;20196;-70
2021/06/18 10:49:14;;;;;;;5.85;2.05;;;29.70;99.90;;;;;;5042579;28;20721;-75
2021/06/18 10:51:51;;;;;;;4.75;2.17;;;29.80;99.90;;;;;;5046284;28;20242;-74
2021/06/18 10:54:38;;;;;;;6.22;2.30;;;29.90;99.90;;;;;;5074878;28;20228;-72
2021/06/18 10:57:13;;;;;;;7.00;2.35;;;29.80;99.90;;;;;;5056412;28;20644;-75
2021/06/18 10:59:44;;;;;;;6.47;2.50;;;29.70;99.90;;;;;;5060281;28;20894;-72
2021/06/18 11:02:30;;;;;;;69.78;4.63;;;29.70;99.90;;;;;;5057287;28;20259;-73
2021/06/18 11:05:01;;;;;;;4.30;1.95;;;29.40;99.90;;;;;;5044926;28;20211;-71
2021/06/18 11:07:39;;;;;;;5.93;1.90;;;29.60;99.90;;;;;;5056440;28;20207;-71
2021/06/18 11:10:26;;;;;;;4.65;2.22;;;29.60;99.90;;;;;;5050073;28;20182;-71
2021/06/18 11:13:04;;;;;;;3.85;1.88;;;29.60;99.90;;;;;;5054680;28;20233;-71
2021/06/18 11:15:30;;;;;;;6.90;2.22;;;29.70;99.90;;;;;;5059415;28;20190;-71
2021/06/18 11:18:41;;;;;;;3.90;2.22;;;29.60;99.90;;;;;;5060780;28;20187;-71
2021/06/18 11:21:00;;;;;;;4.28;2.22;;;29.40;99.90;;;;;;5051375;28;20195;-73
2021/06/18 11:23:35;;;;;;;4.85;2.50;;;29.60;99.90;;;;;;5059470;28;20187;-72
2021/06/18 11:26:12;;;;;;;8.70;2.30;;;29.70;99.90;;;;;;5056151;28;20241;-72
2021/06/18 11:28:46;;;;;;;6.90;2.50;;;29.60;99.90;;;;;;5057300;28;20215;-72
2021/06/18 11:31:36;;;;;;;6.63;2.40;;;29.40;99.90;;;;;;5035781;28;20198;-71
2021/06/18 11:34:03;;;;;;;6.30;2.42;;;29.60;99.90;;;;;;5068737;28;20179;-72
2021/06/18 11:36:38;;;;;;;5.15;2.33;;;29.60;99.90;;;;;;5036242;28;20195;-71
2021/06/18 11:39:07;;;;;;;8.43;2.38;;;29.40;99.90;;;;;;5058648;28;20263;-73
2021/06/18 11:41:42;;;;;;;8.68;2.55;;;29.40;99.90;;;;;;5049667;28;20187;-71
2021/06/18 11:44:12;;;;;;;15.95;2.80;;;29.20;99.90;;;;;;5051291;28;20269;-73
2021/06/18 11:46:41;;;;;;;5.53;2.50;;;29.10;99.90;;;;;;5037381;28;20202;-74
2021/06/18 11:49:12;;;;;;;4.78;2.08;;;29.20;99.90;;;;;;5064916;28;20599;-73
2021/06/18 11:51:39;;;;;;;6.13;2.50;;;29.20;99.60;;;;;;5055597;28;20211;-73
2021/06/18 11:54:07;;;;;;;6.28;2.40;;;29.20;99.20;;;;;;5060462;28;20190;-73
2021/06/18 11:56:36;;;;;;;5.13;2.53;;;29.30;99.90;;;;;;5053766;28;20189;-72
2021/06/18 11:59:12;;;;;;;4.05;2.20;;;29.20;99.40;;;;;;5051628;28;20585;-71
2021/06/18 12:01:39;;;;;;;5.45;2.03;;;29.20;98.40;;;;;;5044740;28;20293;-72
2021/06/18 12:04:15;;;;;;;8.93;2.30;;;29.10;99.20;;;;;;5053266;28;20232;-71
2021/06/18 12:06:42;;;;;;;13.25;2.67;;;29.20;98.90;;;;;;5058977;28;21860;-71
2021/06/18 12:09:19;;;;;;;5.30;2.50;;;29.30;97.70;;;;;;5056836;28;20301;-73
2021/06/18 12:12:01;;;;;;;5.25;2.38;;;29.20;95.80;;;;;;5060399;28;20182;-72
2021/06/18 12:14:43;;;;;;;4.00;2.20;;;29.20;97.10;;;;;;5053918;28;20194;-74
2021/06/18 12:17:10;;;;;;;8.48;2.40;;;29.30;97.10;;;;;;5038014;28;20285;-75
2021/06/18 12:19:44;;;;;;;5.60;2.40;;;29.20;98.10;;;;;;5055412;28;20187;-74
2021/06/18 12:22:13;;;;;;;5.90;2.50;;;29.30;97.30;;;;;;5053596;28;20202;-73
2021/06/18 12:24:44;;;;;;;6.13;2.42;;;29.00;98.20;;;;;;5055077;28;20205;-74
2021/06/18 12:27:33;;;;;;;5.53;2.50;;;29.10;96.80;;;;;;5044208;28;309655;-74
2021/06/18 12:30:13;;;;;;;4.05;2.45;;;29.10;97.10;;;;;;5056863;28;20183;-74
2021/06/18 12:32:40;;;;;;;8.48;2.38;;;28.80;97.10;;;;;;5050049;28;20602;-74
2021/06/18 12:35:10;;;;;;;5.68;2.42;;;29.20;95.60;;;;;;5052663;28;20265;-72
2021/06/18 12:37:42;;;;;;;7.30;2.17;;;29.30;94.60;;;;;;5059681;28;20226;-73
2021/06/18 12:40:30;;;;;;;5.68;2.63;;;29.20;95.50;;;;;;5062732;28;20851;-74
2021/06/18 12:43:13;;;;;;;4.65;2.72;;;29.20;96.20;;;;;;5043254;28;20663;-75
2021/06/18 12:45:50;;;;;;;4.55;2.30;;;29.10;95.70;;;;;;5041863;28;20552;-76
2021/06/18 12:48:27;;;;;;;5.53;2.67;;;29.10;95.50;;;;;;5054708;28;20211;-75
2021/06/18 12:50:59;;;;;;;6.18;2.40;;;29.20;95.60;;;;;;5053254;28;20270;-73
2021/06/18 12:53:41;;;;;;;4.30;2.30;;;29.20;95.70;;;;;;5063407;28;20678;-74
2021/06/18 12:56:24;;;;;;;7.00;2.60;;;29.20;95.00;;;;;;5051759;28;20193;-74
2021/06/18 12:58:54;;;;;;;5.70;2.47;;;29.00;95.50;;;;;;5057442;28;20260;-74
2021/06/18 13:01:24;;;;;;;5.05;2.33;;;29.10;96.10;;;;;;5040831;28;20191;-74
2021/06/18 13:03:56;;;;;;;5.55;2.33;;;29.10;96.60;;;;;;5057301;28;20206;-75